Time;durP1;ratioP1;P1;durP2;ratioP2;P2;SDS_P1;SDS_P2;PMS_P1;PMS_P2;Temp;Humidity;BMP_temperature;BMP_pressure;BME280_temperature;BME280_humidity;BME280_pressure;Samples;Min_cycle;Max_cycle;Signal;HPM_P1;HPM_P2
2021/07/03 00:00:13;;;;;;;3.80;3.50;;;;;;;15.39;93.30;94033.30;1711583;83;21490;-59
2021/07/03 00:02:40;;;;;;;4.97;3.62;;;;;;;15.37;93.00;94023.33;1708049;83;21007;-59
2021/07/03 00:05:08;;;;;;;5.00;3.87;;;;;;;15.33;92.61;94026.97;1716624;82;21051;-59
2021/07/03 00:07:35;;;;;;;4.53;3.33;;;;;;;15.30;92.55;94023.80;1712926;83;21102;-59
2021/07/03 00:10:02;;;;;;;3.08;2.77;;;;;;;15.30;92.74;94029.34;1716632;82;21644;-59
2021/07/03 00:12:28;;;;;;;4.08;2.30;;;;;;;15.33;92.92;94028.99;1712791;83;21149;-59
2021/07/03 00:14:55;;;;;;;3.25;2.27;;;;;;;15.35;92.67;94028.61;1714980;83;20962;-59
2021/07/03 00:17:22;;;;;;;2.40;2.20;;;;;;;15.36;92.64;94028.74;1712292;83;20962;-59
2021/07/03 00:19:50;;;;;;;7.17;2.50;;;;;;;15.38;92.79;94033.16;1716587;83;21010;-59
2021/07/03 00:22:17;;;;;;;4.25;2.42;;;;;;;15.40;93.28;94035.45;1716641;83;21486;-60
2021/07/03 00:24:44;;;;;;;4.22;2.83;;;;;;;15.43;93.00;94029.69;1719915;83;21133;-60
2021/07/03 00:27:12;;;;;;;2.90;2.65;;;;;;;15.39;92.50;94027.75;1718243;82;20964;-59
2021/07/03 00:29:39;;;;;;;4.10;2.50;;;;;;;15.38;92.58;94030.39;1712206;83;21064;-60
2021/07/03 00:32:07;;;;;;;3.58;2.22;;;;;;;15.37;92.57;94024.72;1691060;82;21089;-59
2021/07/03 00:34:34;;;;;;;2.67;2.20;;;;;;;15.38;92.82;94029.01;1730446;82;21005;-60
2021/07/03 00:37:03;;;;;;;2.83;2.42;;;;;;;15.35;92.68;94021.69;1717635;83;21057;-59
2021/07/03 00:39:31;;;;;;;2.30;2.10;;;;;;;15.34;92.89;94024.33;1714299;83;20962;-60
2021/07/03 00:41:57;;;;;;;2.02;1.92;;;;;;;15.33;92.91;94022.81;1717036;83;21026;-60
2021/07/03 00:44:31;;;;;;;5.62;2.30;;;;;;;15.34;93.37;94036.05;1709618;83;20987;-59
2021/07/03 00:47:01;;;;;;;2.77;2.33;;;;;;;15.36;93.28;94030.12;1717784;83;21025;-58
2021/07/03 00:49:30;;;;;;;3.72;1.98;;;;;;;15.38;93.28;94022.08;1706330;84;21163;-60
2021/07/03 00:52:00;;;;;;;2.60;1.87;;;;;;;15.42;93.59;94024.63;1706019;83;20967;-59
2021/07/03 00:54:28;;;;;;;2.00;1.90;;;;;;;15.47;93.18;94019.12;1717981;83;21529;-60
2021/07/03 00:57:02;;;;;;;2.08;1.90;;;;;;;15.51;93.02;94021.02;1719030;82;21057;-59
2021/07/03 00:59:36;;;;;;;;;;;;;;;15.53;92.92;94015.73;1719069;83;21018;-60
2021/07/03 01:02:08;;;;;;;2.70;2.08;;;;;;;15.53;92.48;94019.16;1717796;83;21198;-59
2021/07/03 01:04:34;;;;;;;3.80;1.95;;;;;;;15.46;92.26;94016.22;1721676;83;20973;-59
2021/07/03 01:07:07;;;;;;;2.20;1.85;;;;;;;15.44;92.41;94015.95;1668855;83;21030;-60
2021/07/03 01:09:35;;;;;;;1.80;1.70;;;;;;;15.44;92.45;94007.64;1710969;83;20975;-60
2021/07/03 01:12:05;;;;;;;1.98;1.87;;;;;;;15.43;92.25;94010.28;1716582;83;21461;-59
2021/07/03 01:14:43;;;;;;;3.50;1.80;;;;;;;15.41;92.26;94011.41;1713908;83;21300;-59
2021/07/03 01:17:11;;;;;;;3.00;1.62;;;;;;;15.39;92.33;94012.50;1717524;83;20990;-59
2021/07/03 01:19:42;;;;;;;3.70;1.92;;;;;;;15.37;92.47;94007.34;1714566;83;21058;-60
2021/07/03 01:22:11;;;;;;;3.47;1.90;;;;;;;15.37;92.65;94008.09;1706381;83;21002;-59
2021/07/03 01:24:38;;;;;;;2.08;1.90;;;;;;;15.36;92.52;94007.95;1717226;83;21022;-59
2021/07/03 01:27:08;;;;;;;1.70;1.60;;;;;;;15.31;92.54;94007.92;1690802;83;21155;-58
2021/07/03 01:29:37;;;;;;;2.00;1.80;;;;;;;15.27;92.63;94011.52;1724068;83;20975;-59
2021/07/03 01:32:07;;;;;;;4.67;1.90;;;;;;;15.19;92.64;94004.30;1717693;83;21097;-59
2021/07/03 01:34:36;;;;;;;1.95;1.72;;;;;;;15.17;92.88;94002.65;1711892;83;21618;-58
2021/07/03 01:37:05;;;;;;;3.05;2.10;;;;;;;15.17;93.06;93998.49;1718012;83;20971;-59
2021/07/03 01:39:34;;;;;;;1.82;1.72;;;;;;;15.17;93.29;94004.03;1714440;83;21130;-58
2021/07/03 01:42:03;;;;;;;2.15;1.95;;;;;;;15.18;93.31;93993.72;1671293;83;21006;-59
2021/07/03 01:44:31;;;;;;;3.98;1.77;;;;;;;15.19;93.39;93995.23;1716183;82;20971;-59
2021/07/03 01:46:59;;;;;;;2.12;1.40;;;;;;;15.23;93.58;93998.53;1715091;83;21050;-58
2021/07/03 01:49:27;;;;;;;2.05;1.90;;;;;;;15.24;93.37;93991.73;1718387;83;21074;-59
2021/07/03 01:51:56;;;;;;;2.25;1.80;;;;;;;15.24;93.25;93995.89;1711632;83;21827;-59
2021/07/03 01:54:23;;;;;;;2.02;1.82;;;;;;;15.21;93.27;93987.93;1714101;83;20969;-59
2021/07/03 01:56:58;;;;;;;3.17;1.90;;;;;;;15.20;93.40;93985.67;1713472;83;20970;-58
2021/07/03 01:59:29;;;;;;;1.92;1.75;;;;;;;15.17;93.24;93997.11;1716615;83;21053;-58
2021/07/03 02:01:59;;;;;;;1.80;1.70;;;;;;;15.15;93.33;93987.14;1715419;83;21003;-59
2021/07/03 02:04:27;;;;;;;1.98;1.87;;;;;;;15.14;93.34;93986.27;1720463;83;21154;-58
2021/07/03 02:06:54;;;;;;;2.10;1.90;;;;;;;15.14;93.63;93996.71;1719644;83;20950;-59
2021/07/03 02:09:24;;;;;;;3.35;1.90;;;;;;;15.18;93.77;93993.72;1720185;83;20946;-59
2021/07/03 02:11:52;;;;;;;5.33;1.70;;;;;;;15.20;93.66;93989.83;1709341;83;20963;-58
2021/07/03 02:14:21;;;;;;;5.67;1.92;;;;;;;15.22;93.56;93983.91;1716977;83;20975;-59
2021/07/03 02:16:50;;;;;;;1.77;1.60;;;;;;;15.25;93.40;93985.71;1708879;83;21156;-59
2021/07/03 02:19:19;;;;;;;1.50;1.40;;;;;;;15.27;92.96;93985.20;1718560;83;21026;-58
2021/07/03 02:21:46;;;;;;;2.10;1.60;;;;;;;15.26;93.03;93990.00;1691440;83;20978;-58
2021/07/03 02:24:14;;;;;;;1.80;1.70;;;;;;;15.26;92.63;93990.00;1716926;83;20962;-59
2021/07/03 02:26:43;;;;;;;3.85;1.55;;;;;;;15.27;92.56;93990.13;1717008;82;20994;-58
2021/07/03 02:29:10;;;;;;;2.05;1.60;;;;;;;15.27;92.50;93997.05;1717696;83;21125;-59
2021/07/03 02:31:36;;;;;;;2.30;1.30;;;;;;;15.28;92.58;93993.03;1716524;83;21049;-58
2021/07/03 02:34:04;;;;;;;3.60;1.60;;;;;;;15.29;92.46;94001.50;1717822;83;20994;-60
2021/07/03 02:36:33;;;;;;;2.50;1.60;;;;;;;15.27;92.06;93994.28;1718179;83;20983;-59
2021/07/03 02:39:01;;;;;;;2.02;1.50;;;;;;;15.24;92.17;93996.66;1717902;83;20959;-58
2021/07/03 02:41:29;;;;;;;2.77;1.42;;;;;;;15.21;91.93;93993.47;1712774;83;21183;-58
2021/07/03 02:43:59;;;;;;;1.65;1.55;;;;;;;15.22;92.13;93992.86;1714176;83;21529;-58
2021/07/03 02:46:29;;;;;;;2.02;1.70;;;;;;;15.24;92.44;93992.51;1708129;83;20991;-60
2021/07/03 02:48:57;;;;;;;3.33;1.75;;;;;;;15.31;92.48;93997.61;1716439;83;21129;-59
2021/07/03 02:51:24;;;;;;;2.20;1.50;;;;;;;15.32;92.45;93988.03;1715297;83;20967;-59
2021/07/03 02:53:52;;;;;;;1.80;1.70;;;;;;;15.33;92.42;93992.97;1708108;83;21132;-59
2021/07/03 02:56:19;;;;;;;1.70;1.60;;;;;;;15.31;92.54;93992.06;1714653;83;20998;-60
2021/07/03 02:58:47;;;;;;;1.67;1.57;;;;;;;15.30;92.62;93987.77;1717083;83;21058;-60
2021/07/03 03:01:14;;;;;;;2.05;1.82;;;;;;;15.30;92.56;93993.31;1709905;83;20979;-59
2021/07/03 03:03:43;;;;;;;5.30;1.87;;;;;;;15.32;92.93;93991.45;1715585;83;21046;-59
2021/07/03 03:06:12;;;;;;;3.62;1.62;;;;;;;15.34;92.97;93989.68;1716742;83;21781;-59
2021/07/03 03:08:39;;;;;;;2.22;2.05;;;;;;;15.36;92.84;93988.55;1716808;83;20997;-59
2021/07/03 03:11:07;;;;;;;1.60;1.50;;;;;;;15.40;92.92;93994.62;1715128;83;21065;-59
2021/07/03 03:13:35;;;;;;;1.72;1.62;;;;;;;15.42;92.82;93993.52;1714921;83;20967;-59
2021/07/03 03:16:03;;;;;;;2.52;1.90;;;;;;;15.41;92.86;93989.23;1716567;83;21462;-59
2021/07/03 03:18:32;;;;;;;1.65;1.55;;;;;;;15.45;92.90;93990.37;1667087;83;21180;-59
2021/07/03 03:20:59;;;;;;;2.70;1.80;;;;;;;15.47;92.81;93984.47;1712109;83;20958;-59
2021/07/03 03:23:26;;;;;;;1.90;1.80;;;;;;;15.53;92.82;93986.63;1718317;83;21014;-57
2021/07/03 03:25:54;;;;;;;2.40;2.20;;;;;;;15.60;92.85;93980.63;1715104;83;21446;-64
2021/07/03 03:28:22;;;;;;;2.12;1.92;;;;;;;15.66;92.66;93981.41;1718213;82;20973;-60
2021/07/03 03:30:50;;;;;;;1.90;1.77;;;;;;;15.71;92.60;93977.88;1716484;83;21842;-68
2021/07/03 03:33:18;;;;;;;4.22;1.87;;;;;;;15.77;92.51;93980.05;1717383;83;21002;-69
2021/07/03 03:35:46;;;;;;;1.98;1.85;;;;;;;15.78;92.34;93982.97;1716944;83;21457;-67
2021/07/03 03:38:13;;;;;;;2.00;1.77;;;;;;;15.82;92.12;93977.17;1707622;83;20972;-64
2021/07/03 03:40:42;;;;;;;2.10;1.98;;;;;;;15.83;91.54;93990.55;1718199;83;21438;-65
2021/07/03 03:43:11;;;;;;;2.08;1.90;;;;;;;15.82;90.91;93992.42;1717412;83;21215;-67
2021/07/03 03:45:39;;;;;;;1.80;1.70;;;;;;;15.81;90.72;93992.30;1717961;83;21564;-69
2021/07/03 03:48:06;;;;;;;2.02;1.80;;;;;;;15.81;90.96;93991.68;1708516;83;21014;-69
2021/07/03 03:50:34;;;;;;;1.98;1.87;;;;;;;15.85;90.77;93994.19;1716609;82;20959;-70
2021/07/03 03:53:03;;;;;;;3.50;2.00;;;;;;;15.88;90.78;93989.06;1716650;83;21494;-70
2021/07/03 03:55:30;;;;;;;3.52;2.17;;;;;;;15.90;90.85;93985.90;1715117;83;21113;-70
2021/07/03 03:57:57;;;;;;;3.17;1.92;;;;;;;15.87;90.59;93986.90;1717590;83;21235;-70
2021/07/03 04:00:24;;;;;;;2.10;1.90;;;;;;;15.88;90.71;93993.22;1709276;83;21007;-62
2021/07/03 04:02:56;;;;;;;4.28;2.40;;;;;;;15.88;90.78;93993.96;1716207;83;20975;-60
2021/07/03 04:05:25;;;;;;;3.20;2.15;;;;;;;15.85;91.04;93994.97;1717189;83;21545;-59
2021/07/03 04:07:54;;;;;;;5.60;2.50;;;;;;;15.81;91.10;94000.00;1717081;83;20991;-59
2021/07/03 04:10:22;;;;;;;3.77;2.40;;;;;;;15.77;91.21;93986.98;1711492;83;20972;-59
2021/07/03 04:12:51;;;;;;;2.42;1.98;;;;;;;15.78;91.51;93985.75;1710996;83;21498;-59
2021/07/03 04:15:20;;;;;;;3.72;2.50;;;;;;;15.78;91.05;93992.68;1708774;83;21058;-59
2021/07/03 04:17:46;;;;;;;3.20;2.47;;;;;;;15.78;90.84;93987.75;1716063;83;21059;-60
2021/07/03 04:20:14;;;;;;;3.50;2.52;;;;;;;15.80;91.11;93993.55;1716539;83;21847;-59
2021/07/03 04:22:42;;;;;;;5.55;2.75;;;;;;;15.81;91.24;93989.52;1695049;83;20985;-59
2021/07/03 04:25:11;;;;;;;6.95;4.58;;;;;;;15.80;91.68;93994.33;1696211;83;20990;-59
2021/07/03 04:27:39;;;;;;;4.75;3.55;;;;;;;15.84;91.49;93996.22;1719118;82;21054;-58
2021/07/03 04:30:08;;;;;;;7.30;3.27;;;;;;;15.85;91.38;93999.12;1717055;83;37247;-60
2021/07/03 04:32:37;;;;;;;3.62;2.98;;;;;;;15.84;91.60;93996.84;1713381;83;21135;-59
2021/07/03 04:35:06;;;;;;;7.15;3.02;;;;;;;15.81;91.78;94000.00;1693746;82;21048;-59
2021/07/03 04:37:33;;;;;;;6.80;3.22;;;;;;;15.82;92.04;94002.91;1716257;82;21117;-59
2021/07/03 04:40:04;;;;;;;3.40;2.72;;;;;;;15.93;92.26;94007.09;1714873;83;21423;-59
2021/07/03 04:42:31;;;;;;;4.05;3.00;;;;;;;16.03;91.86;94004.84;1715419;83;20994;-59
2021/07/03 04:44:57;;;;;;;5.60;3.02;;;;;;;16.04;91.39;93998.81;1717577;82;21099;-59
2021/07/03 04:47:26;;;;;;;3.98;3.58;;;;;;;15.99;91.17;93998.17;1716467;83;21010;-59
2021/07/03 04:49:52;;;;;;;3.67;3.37;;;;;;;15.96;91.14;93997.80;1678728;85;20998;-60
2021/07/03 04:52:19;;;;;;;5.50;3.52;;;;;;;15.92;91.18;93994.48;1673350;84;21077;-59
2021/07/03 04:54:45;;;;;;;6.45;4.08;;;;;;;15.91;91.26;93993.61;1712997;83;21457;-59
2021/07/03 04:57:13;;;;;;;6.83;4.25;;;;;;;15.86;91.28;93990.94;1711762;83;21125;-58
2021/07/03 04:59:42;;;;;;;4.62;4.22;;;;;;;15.85;91.52;93988.03;1718603;83;21517;-59
2021/07/03 05:02:12;;;;;;;4.62;4.22;;;;;;;15.89;92.00;93991.31;1716555;83;21006;-59
2021/07/03 05:04:39;;;;;;;5.60;3.60;;;;;;;15.97;91.59;93999.30;1715374;83;21563;-58
2021/07/03 05:07:06;;;;;;;8.03;6.42;;;;;;;16.00;90.78;93998.92;1710662;83;21074;-58
2021/07/03 05:09:35;;;;;;;4.85;3.70;;;;;;;16.03;90.36;93999.30;1708844;83;21239;-59
2021/07/03 05:12:04;;;;;;;3.75;3.40;;;;;;;16.06;90.43;93999.71;1712914;83;21152;-57
2021/07/03 05:14:32;;;;;;;3.22;2.83;;;;;;;16.06;89.70;94001.10;1720252;83;20994;-59
2021/07/03 05:16:59;;;;;;;3.55;2.40;;;;;;;16.03;89.65;93998.69;1717550;83;20979;-58
2021/07/03 05:19:26;;;;;;;5.20;4.78;;;;;;;16.00;89.56;94001.69;1710568;83;21522;-59
2021/07/03 05:21:54;;;;;;;2.77;2.58;;;;;;;16.02;89.36;94001.33;1719908;83;21120;-58
2021/07/03 05:24:22;;;;;;;3.10;2.70;;;;;;;16.01;89.27;94006.75;1717853;83;21423;-59
2021/07/03 05:26:49;;;;;;;7.83;7.03;;;;;;;16.01;89.33;94008.14;1716692;82;21117;-59
2021/07/03 05:29:16;;;;;;;3.77;3.00;;;;;;;16.05;89.47;94012.81;1716748;83;20975;-60
2021/07/03 05:31:42;;;;;;;15.45;13.72;;;;;;;16.09;89.50;94012.58;1716606;83;20963;-59
2021/07/03 05:34:08;;;;;;;11.12;9.33;;;;;;;16.12;89.53;94013.71;1720632;83;21790;-60
2021/07/03 05:36:36;;;;;;;11.38;8.78;;;;;;;16.14;89.35;94011.22;1710745;83;20958;-59
2021/07/03 05:39:04;;;;;;;13.93;12.43;;;;;;;16.15;89.02;94007.80;1716611;83;20991;-60
2021/07/03 05:41:33;;;;;;;28.70;21.00;;;;;;;16.15;89.07;94004.41;1716891;83;21110;-59
2021/07/03 05:43:59;;;;;;;22.70;17.27;;;;;;;16.18;89.11;94000.63;1716728;83;21013;-59
2021/07/03 05:46:26;;;;;;;14.05;9.78;;;;;;;16.25;89.10;94011.23;1717398;82;21464;-59
2021/07/03 05:48:52;;;;;;;17.10;12.25;;;;;;;16.30;88.90;94017.41;1681850;83;20943;-60
2021/07/03 05:51:21;;;;;;;6.87;5.25;;;;;;;16.30;88.44;94011.25;1717529;83;21045;-59
2021/07/03 05:53:48;;;;;;;5.60;3.75;;;;;;;16.28;88.26;94015.77;1716572;83;21046;-59
2021/07/03 05:56:14;;;;;;;10.08;7.05;;;;;;;16.27;88.01;94011.48;1719002;83;21431;-59
2021/07/03 05:58:41;;;;;;;5.70;4.00;;;;;;;16.31;88.22;94022.48;1716270;83;21140;-60
2021/07/03 06:01:09;;;;;;;6.47;3.58;;;;;;;16.34;88.14;94018.73;1716555;83;21494;-60
2021/07/03 06:03:36;;;;;;;7.80;7.05;;;;;;;16.36;87.94;94025.17;1718255;83;20963;-58
2021/07/03 06:06:03;;;;;;;18.17;16.25;;;;;;;16.36;88.01;94022.41;1715413;83;21573;-59
2021/07/03 06:08:30;;;;;;;6.62;5.90;;;;;;;16.36;88.22;94026.56;1714066;83;20959;-60
2021/07/03 06:10:57;;;;;;;5.00;3.70;;;;;;;16.37;88.26;94014.95;1717816;83;21319;-61
2021/07/03 06:13:24;;;;;;;3.33;3.02;;;;;;;16.37;87.87;94015.59;1717508;83;21077;-60
2021/07/03 06:15:50;;;;;;;5.15;3.90;;;;;;;16.37;88.03;94019.11;1717213;82;20982;-59
2021/07/03 06:18:17;;;;;;;5.15;3.75;;;;;;;16.38;88.19;94016.45;1715585;83;21418;-60
2021/07/03 06:20:44;;;;;;;3.98;3.12;;;;;;;16.41;88.60;94021.65;1717198;83;21426;-59
2021/07/03 06:23:11;;;;;;;3.55;3.10;;;;;;;16.50;88.98;94030.50;1715659;83;21129;-59
2021/07/03 06:25:37;;;;;;;5.40;4.20;;;;;;;16.58;89.09;94027.98;1709611;83;21049;-60
2021/07/03 06:28:05;;;;;;;3.42;3.12;;;;;;;16.63;89.32;94030.02;1717569;81;22045;-59
2021/07/03 06:30:32;;;;;;;4.92;3.17;;;;;;;16.69;89.03;94026.63;1713991;83;20971;-58
2021/07/03 06:32:59;;;;;;;2.95;2.67;;;;;;;16.77;88.62;94033.93;1715053;83;21123;-61
2021/07/03 06:35:25;;;;;;;8.45;4.37;;;;;;;16.85;88.23;94031.41;1715758;83;21137;-60
2021/07/03 06:37:53;;;;;;;5.05;4.53;;;;;;;16.89;88.40;94027.78;1717432;83;20959;-60
2021/07/03 06:40:19;;;;;;;5.35;3.70;;;;;;;16.92;88.55;94028.16;1714988;83;20994;-59
2021/07/03 06:42:46;;;;;;;6.22;4.10;;;;;;;16.99;88.28;94033.19;1710166;83;21072;-58
2021/07/03 06:45:13;;;;;;;7.10;5.17;;;;;;;17.08;87.94;94033.70;1716339;83;20954;-59
2021/07/03 06:47:39;;;;;;;7.28;4.75;;;;;;;17.14;87.20;94032.31;1720947;83;21177;-61
2021/07/03 06:50:07;;;;;;;7.22;4.87;;;;;;;17.18;87.39;94029.41;1719799;83;21041;-59
2021/07/03 06:52:34;;;;;;;11.35;5.80;;;;;;;17.27;87.48;94031.17;1717359;82;20940;-61
2021/07/03 06:55:01;;;;;;;5.67;3.42;;;;;;;17.35;86.94;94030.80;1713287;83;20995;-59
2021/07/03 06:57:27;;;;;;;5.55;3.33;;;;;;;17.38;85.77;94029.78;1708388;83;21182;-61
2021/07/03 06:59:54;;;;;;;3.85;3.10;;;;;;;17.39;84.54;94027.13;1715370;83;21320;-60
2021/07/03 07:02:20;;;;;;;3.65;3.25;;;;;;;17.39;84.11;94022.95;1717622;83;21836;-60
2021/07/03 07:04:47;;;;;;;3.85;3.10;;;;;;;17.43;83.58;94026.25;1716153;83;21037;-59
2021/07/03 07:07:13;;;;;;;4.17;2.85;;;;;;;17.50;83.44;94027.11;1716184;83;21076;-59
2021/07/03 07:09:40;;;;;;;6.80;3.22;;;;;;;17.57;83.45;94027.35;1717598;83;21030;-60
2021/07/03 07:12:09;;;;;;;5.25;4.42;;;;;;;17.65;83.45;94029.72;1717749;83;21038;-60
2021/07/03 07:14:37;;;;;;;5.78;3.20;;;;;;;17.78;83.68;94030.57;1712162;83;21112;-58
2021/07/03 07:17:04;;;;;;;4.92;4.00;;;;;;;17.87;82.82;94027.52;1682185;84;21006;-60
2021/07/03 07:19:33;;;;;;;6.03;3.15;;;;;;;17.97;82.28;94030.16;1716430;82;20938;-60
2021/07/03 07:22:00;;;;;;;4.55;3.98;;;;;;;18.10;83.01;94027.55;1717672;83;21013;-60
2021/07/03 07:24:27;;;;;;;6.25;4.15;;;;;;;18.23;83.65;94026.48;1717329;83;21461;-59
2021/07/03 07:26:53;;;;;;;3.98;3.55;;;;;;;18.35;83.30;94025.20;1714995;82;21154;-61
2021/07/03 07:29:20;;;;;;;3.52;3.10;;;;;;;18.45;83.25;94019.42;1714659;83;21172;-60
2021/07/03 07:31:49;;;;;;;5.85;3.00;;;;;;;18.56;83.18;94020.77;1716185;83;21046;-60
2021/07/03 07:34:16;;;;;;;5.62;2.85;;;;;;;18.65;82.71;94019.70;1714635;83;21069;-60
2021/07/03 07:36:45;;;;;;;3.60;2.52;;;;;;;18.77;82.42;94021.12;1712483;83;20935;-60
2021/07/03 07:39:11;;;;;;;2.70;2.50;;;;;;;18.90;81.47;94022.06;1711932;83;20962;-60
2021/07/03 07:41:38;;;;;;;6.37;3.05;;;;;;;18.98;80.85;94015.29;1709500;83;21029;-59
2021/07/03 07:44:05;;;;;;;5.42;2.70;;;;;;;18.99;80.64;94021.72;1720548;83;20955;-61
2021/07/03 07:46:32;;;;;;;3.20;2.75;;;;;;;19.01;80.41;94014.98;1719929;83;20966;-59
2021/07/03 07:48:59;;;;;;;4.20;3.47;;;;;;;19.10;79.85;94016.69;1716416;83;21764;-60
2021/07/03 07:51:26;;;;;;;5.53;3.12;;;;;;;19.18;80.32;94018.42;1716540;83;20950;-60
2021/07/03 07:53:53;;;;;;;3.80;2.70;;;;;;;19.29;79.23;94014.16;1714606;83;21006;-62
2021/07/03 07:56:19;;;;;;;2.95;2.55;;;;;;;19.43;78.54;94015.81;1708531;82;21545;-60
2021/07/03 07:58:46;;;;;;;5.78;2.55;;;;;;;19.54;78.25;94022.66;1714717;83;21073;-59
2021/07/03 08:01:14;;;;;;;2.60;2.30;;;;;;;19.60;78.20;94019.82;1716520;82;21125;-59
2021/07/03 08:03:42;;;;;;;3.22;2.35;;;;;;;19.63;78.24;94016.75;1716559;83;21014;-60
2021/07/03 08:06:09;;;;;;;3.22;2.98;;;;;;;19.58;77.51;94014.02;1715747;83;21045;-59
2021/07/03 08:08:37;;;;;;;3.62;2.83;;;;;;;19.52;76.79;94009.13;1716367;83;21041;-60
2021/07/03 08:11:04;;;;;;;4.67;2.65;;;;;;;19.53;76.96;94011.38;1716731;82;20941;-60
2021/07/03 08:13:31;;;;;;;5.00;2.65;;;;;;;19.55;77.36;94014.41;1714879;83;21053;-59
2021/07/03 08:15:58;;;;;;;3.55;2.60;;;;;;;19.64;77.58;94010.52;1717167;83;21006;-59
2021/07/03 08:18:25;;;;;;;2.72;2.50;;;;;;;19.71;77.21;94006.50;1715446;83;21056;-60
2021/07/03 08:20:53;;;;;;;5.55;2.80;;;;;;;19.81;76.53;94002.09;1708758;82;21478;-59
2021/07/03 08:23:19;;;;;;;11.68;3.55;;;;;;;19.92;77.16;94004.74;1709707;83;21497;-60
2021/07/03 08:25:48;;;;;;;6.20;3.37;;;;;;;20.07;76.53;94009.95;1706536;82;21044;-59
2021/07/03 08:28:15;;;;;;;27.98;5.58;;;;;;;20.21;74.58;94006.72;1698414;82;21455;-59
2021/07/03 08:30:42;;;;;;;5.10;2.83;;;;;;;20.36;74.38;94011.23;1704566;83;20992;-58
2021/07/03 08:33:09;;;;;;;3.17;2.87;;;;;;;20.45;72.47;94017.83;1696851;83;21053;-59
2021/07/03 08:35:36;;;;;;;6.67;3.40;;;;;;;20.45;70.45;94015.03;1705089;83;21015;-58
2021/07/03 08:38:04;;;;;;;6.10;3.20;;;;;;;20.44;69.52;94011.50;1706975;83;21508;-59
2021/07/03 08:40:32;;;;;;;3.83;3.35;;;;;;;20.49;68.59;94009.89;1705427;83;20968;-59
2021/07/03 08:42:59;;;;;;;3.72;2.87;;;;;;;20.60;68.29;94005.55;1701406;83;21072;-59
2021/07/03 08:45:26;;;;;;;2.80;2.52;;;;;;;20.73;67.57;94007.03;1688435;83;21554;-60
2021/07/03 08:47:53;;;;;;;4.85;2.70;;;;;;;20.88;67.15;94001.72;1708995;83;20956;-60
2021/07/03 08:50:19;;;;;;;8.70;3.02;;;;;;;21.01;67.53;94004.58;1700304;82;21011;-58
2021/07/03 08:52:46;;;;;;;5.97;2.62;;;;;;;21.07;66.71;94006.67;1707579;83;20973;-60
2021/07/03 08:55:17;;;;;;;2.55;2.35;;;;;;;21.20;65.76;94006.06;1709418;82;21027;-60
2021/07/03 08:57:50;;;;;;;3.52;2.85;;;;;;;21.29;64.56;94003.50;1705893;83;20963;-59
2021/07/03 09:00:22;;;;;;;2.72;2.52;;;;;;;21.32;63.86;94001.03;1706991;83;20991;-59
2021/07/03 09:02:49;;;;;;;2.58;2.22;;;;;;;21.35;64.00;93999.33;1697087;83;21186;-59
2021/07/03 09:05:23;;;;;;;3.85;2.62;;;;;;;21.42;64.16;93995.12;1698554;83;21458;-60
2021/07/03 09:07:51;;;;;;;4.37;2.87;;;;;;;21.52;63.70;93999.80;1700310;83;21593;-60
2021/07/03 09:10:22;;;;;;;3.10;2.40;;;;;;;21.74;63.44;93996.62;1700614;83;21128;-59
2021/07/03 09:12:51;;;;;;;2.92;2.62;;;;;;;21.96;62.83;93991.22;1707765;84;21010;-60
2021/07/03 09:15:22;;;;;;;4.53;2.60;;;;;;;22.07;62.57;93995.32;1703457;83;21107;-58
2021/07/03 09:17:54;;;;;;;2.92;2.55;;;;;;;22.07;61.19;93989.72;1699134;83;21046;-59
2021/07/03 09:20:37;;;;;;;2.77;2.50;;;;;;;21.92;60.37;93996.39;1705834;83;21419;-59
2021/07/03 09:23:13;;;;;;;3.22;2.50;;;;;;;21.77;60.40;93989.17;1704070;83;20963;-61
2021/07/03 09:25:50;;;;;;;5.75;3.60;;;;;;;21.59;59.92;93988.58;1700707;83;21069;-59
2021/07/03 09:28:20;;;;;;;11.20;3.60;;;;;;;21.44;60.46;93992.56;1700988;83;21117;-59
2021/07/03 09:30:53;;;;;;;19.77;5.55;;;;;;;21.26;62.31;93996.92;1699808;83;21068;-58
2021/07/03 09:33:23;;;;;;;7.22;3.95;;;;;;;21.08;62.88;93992.13;1706976;83;21486;-60
2021/07/03 09:36:00;;;;;;;13.75;3.02;;;;;;;20.92;63.87;93993.15;1698233;83;20997;-59
2021/07/03 09:38:39;;;;;;;5.53;3.25;;;;;;;20.80;65.33;93995.99;1707257;83;21518;-59
2021/07/03 09:41:13;;;;;;;4.47;2.95;;;;;;;20.73;66.31;93991.66;1704255;83;22051;-59
2021/07/03 09:43:53;;;;;;;6.05;3.10;;;;;;;20.71;67.02;93990.77;1697165;83;21327;-59
2021/07/03 09:46:41;;;;;;;8.63;4.08;;;;;;;20.74;67.26;93984.11;1707310;83;21074;-59
2021/07/03 09:49:13;;;;;;;7.83;3.98;;;;;;;20.82;67.15;93985.66;1699674;83;21018;-60
2021/07/03 09:51:45;;;;;;;13.83;4.28;;;;;;;20.89;67.18;93978.84;1700830;83;21013;-59
2021/07/03 09:54:15;;;;;;;3.72;3.40;;;;;;;20.94;66.74;93977.98;1702770;83;21536;-59
2021/07/03 09:56:43;;;;;;;5.65;2.47;;;;;;;21.02;66.83;93973.30;1702266;83;20999;-59
2021/07/03 09:59:10;;;;;;;4.00;2.72;;;;;;;21.19;66.00;93975.81;1700545;83;21056;-60
2021/07/03 10:01:43;;;;;;;7.40;2.77;;;;;;;21.33;64.88;93968.95;1700642;83;21319;-59
2021/07/03 10:04:10;;;;;;;5.65;2.95;;;;;;;21.47;64.72;93971.90;1700710;83;21092;-59
2021/07/03 10:06:59;;;;;;;12.23;3.25;;;;;;;21.58;63.90;93970.28;1706685;83;21757;-59
2021/07/03 10:09:31;;;;;;;8.28;3.20;;;;;;;21.66;62.98;93962.80;1704531;83;20949;-59
2021/07/03 10:12:03;;;;;;;6.05;3.70;;;;;;;21.79;62.63;93959.98;1700655;83;20959;-59
2021/07/03 10:14:40;;;;;;;5.22;3.85;;;;;;;21.96;62.72;93958.38;1707501;83;21002;-59
2021/07/03 10:17:07;;;;;;;4.62;4.22;;;;;;;22.26;62.38;93961.58;1703696;83;22082;-59
2021/07/03 10:19:38;;;;;;;4.67;3.25;;;;;;;22.48;59.59;93954.86;1678661;83;21935;-59
2021/07/03 10:22:20;;;;;;;8.95;3.12;;;;;;;22.67;59.13;93965.92;1702100;83;21001;-59
2021/07/03 10:24:55;;;;;;;3.35;2.60;;;;;;;22.85;57.49;93957.98;1699903;83;20987;-63
2021/07/03 10:27:30;;;;;;;4.33;2.25;;;;;;;22.90;57.05;93948.05;1707565;82;20982;-62
2021/07/03 10:30:00;;;;;;;5.20;2.40;;;;;;;22.92;56.40;93953.86;1705806;82;21347;-62
2021/07/03 10:32:30;;;;;;;4.75;2.58;;;;;;;22.89;56.30;93954.95;1702050;83;21135;-61
2021/07/03 10:35:15;;;;;;;5.83;2.80;;;;;;;22.78;56.29;93950.23;1702123;83;21640;-62
2021/07/03 10:37:42;;;;;;;13.45;4.08;;;;;;;22.68;56.69;93949.94;1707759;84;21011;-61
2021/07/03 10:40:24;;;;;;;6.80;3.50;;;;;;;22.65;56.69;93954.50;1700526;83;21010;-62
2021/07/03 10:42:54;;;;;;;5.72;4.10;;;;;;;22.42;58.09;93948.63;1707814;83;21019;-62
2021/07/03 10:45:23;;;;;;;4.55;2.72;;;;;;;22.42;58.09;93948.63;1705104;83;21080;-61
2021/07/03 10:47:51;;;;;;;5.42;2.85;;;;;;;22.36;57.70;93943.00;1703150;83;21058;-60
2021/07/03 10:50:27;;;;;;;3.55;2.92;;;;;;;22.26;58.25;93937.09;1703286;82;21535;-60
2021/07/03 10:52:55;;;;;;;3.47;3.17;;;;;;;22.11;59.21;93938.30;1688344;83;20982;-61
2021/07/03 10:55:31;;;;;;;4.17;2.60;;;;;;;21.97;60.12;93947.27;1717586;83;21053;-62
2021/07/03 10:58:00;;;;;;;7.00;2.77;;;;;;;21.79;60.31;93951.58;1695196;83;21581;-62
2021/07/03 11:00:27;;;;;;;2.95;2.65;;;;;;;21.46;62.85;93957.13;1684560;84;20979;-61
2021/07/03 11:02:53;;;;;;;2.75;2.50;;;;;;;21.15;64.07;93955.79;1686354;85;20951;-62
2021/07/03 11:05:20;;;;;;;5.33;4.72;;;;;;;20.92;65.89;93953.99;1686707;85;21019;-62
2021/07/03 11:07:47;;;;;;;4.83;3.85;;;;;;;20.83;66.28;93954.41;1686031;85;21115;-61
2021/07/03 11:10:27;;;;;;;5.15;3.02;;;;;;;20.85;67.55;93966.44;1686477;84;20947;-62
2021/07/03 11:12:56;;;;;;;5.08;2.17;;;;;;;20.96;67.27;93964.22;1685932;85;21027;-61
2021/07/03 11:15:25;;;;;;;6.03;2.70;;;;;;;21.16;65.69;93957.30;1686314;85;21059;-61
2021/07/03 11:17:52;;;;;;;4.90;2.77;;;;;;;21.51;65.15;93954.13;1686252;85;20983;-62
2021/07/03 11:20:31;;;;;;;3.77;2.30;;;;;;;21.80;63.62;93951.05;1686470;85;21511;-61
2021/07/03 11:22:59;;;;;;;4.65;2.35;;;;;;;22.04;62.85;93952.98;1686533;85;21113;-61
2021/07/03 11:25:29;;;;;;;5.28;2.35;;;;;;;22.22;60.61;93944.32;1694718;83;21020;-61
2021/07/03 11:28:22;;;;;;;8.50;2.42;;;;;;;22.36;60.49;93946.58;1695072;83;21432;-62
2021/07/03 11:30:56;;;;;;;20.17;4.67;;;;;;;22.54;60.17;93942.13;1696390;83;21065;-62
2021/07/03 11:33:30;;;;;;;4.40;2.10;;;;;;;22.67;59.97;93948.44;1703800;83;21956;-62
2021/07/03 11:35:57;;;;;;;7.50;4.10;;;;;;;22.73;58.38;93950.48;1713835;82;21156;-63
2021/07/03 11:38:25;;;;;;;2.37;2.10;;;;;;;22.62;58.09;93951.39;1721240;83;21536;-61
2021/07/03 11:40:54;;;;;;;4.22;2.10;;;;;;;22.41;59.28;93958.97;1707648;84;21552;-61